createdAt,value
2018-12-12T09:19:55.855Z,17.93
2018-12-12T09:22:24.723Z,19.73
2018-12-12T09:24:54.601Z,17.87
2018-12-12T09:27:23.476Z,19.90
2018-12-12T09:29:54.312Z,20.33
2018-12-12T09:32:25.190Z,17.17
2018-12-12T09:34:56.037Z,17.87
2018-12-12T09:37:24.906Z,17.03
2018-12-12T09:39:53.796Z,18.40
2018-12-12T09:42:22.682Z,17.17
2018-12-12T09:44:51.554Z,15.60
2018-12-12T09:47:20.720Z,15.70
2018-12-12T09:49:49.592Z,15.97
2018-12-12T09:52:20.441Z,17.30
2018-12-12T09:54:51.281Z,15.77
2018-12-12T09:57:20.158Z,15.20
2018-12-12T09:59:49.040Z,17.20
2018-12-12T10:02:17.903Z,14.70
2018-12-12T10:04:46.781Z,14.83
2018-12-12T10:07:15.671Z,15.43
2018-12-12T10:09:44.608Z,15.23
2018-12-12T10:12:13.504Z,14.50
2018-12-12T10:14:42.439Z,15.47
2018-12-12T10:17:11.356Z,14.00
2018-12-12T10:19:40.309Z,15.20
2018-12-12T10:22:09.360Z,15.37
2018-12-12T10:24:38.580Z,15.73
2018-12-12T10:27:08.235Z,14.23
2018-12-12T10:29:38.365Z,15.00
2018-12-12T10:32:07.262Z,14.70
2018-12-12T10:34:36.164Z,14.30
2018-12-12T10:37:05.060Z,12.97
2018-12-12T10:39:34.430Z,14.83
2018-12-12T10:42:03.430Z,14.03
2018-12-12T10:44:33.412Z,14.43
2018-12-12T10:47:02.369Z,14.57
2018-12-12T10:49:31.226Z,14.07
2018-12-12T10:52:01.107Z,15.37
2018-12-12T10:54:30.988Z,15.30
2018-12-12T10:56:59.855Z,14.43
2018-12-12T10:59:28.764Z,14.23
2018-12-12T11:02:02.924Z,13.83
2018-12-12T11:04:31.800Z,14.70
2018-12-12T11:07:00.738Z,15.57
2018-12-12T11:09:29.700Z,14.73
2018-12-12T11:11:58.580Z,16.13
2018-12-12T11:14:27.593Z,14.60
2018-12-12T11:16:56.506Z,14.53
2018-12-12T11:19:25.476Z,14.50
2018-12-12T11:21:54.429Z,15.80
2018-12-12T11:24:23.325Z,15.43
2018-12-12T11:26:52.184Z,15.77
2018-12-12T11:29:21.124Z,15.20
2018-12-12T11:31:50.027Z,16.10
2018-12-12T11:34:18.911Z,15.40
2018-12-12T11:36:47.805Z,14.30
2018-12-12T11:39:16.828Z,13.77
2018-12-12T11:41:45.663Z,12.77
2018-12-12T11:44:14.719Z,12.70
2018-12-12T11:46:43.627Z,13.10
2018-12-12T11:49:12.533Z,13.57
2018-12-12T11:51:41.469Z,12.33
2018-12-12T11:54:10.488Z,11.13
2018-12-12T11:56:39.506Z,11.47
2018-12-12T11:59:08.481Z,11.97
2018-12-12T12:01:37.574Z,11.20
2018-12-12T12:04:06.421Z,9.90
2018-12-12T12:06:36.415Z,9.70
2018-12-12T12:09:07.675Z,9.03
2018-12-12T12:11:36.599Z,9.57
2018-12-12T12:14:07.453Z,9.03
2018-12-12T12:16:36.361Z,9.53
2018-12-12T12:19:05.215Z,9.77
2018-12-12T12:21:34.082Z,9.00
2018-12-12T12:24:02.968Z,8.77
2018-12-12T12:26:32.044Z,8.77
2018-12-12T12:29:01.238Z,8.50
2018-12-12T12:31:30.297Z,8.57
2018-12-12T12:34:03.247Z,8.40
2018-12-12T12:36:30.253Z,8.47
2018-12-12T12:38:59.105Z,7.50
2018-12-12T12:41:28.061Z,7.57
2018-12-12T12:43:56.933Z,7.60
2018-12-12T12:46:25.846Z,7.07
2018-12-12T12:48:54.725Z,7.33
2018-12-12T12:51:23.593Z,6.07
2018-12-12T12:53:52.476Z,7.10
2018-12-12T12:56:21.418Z,7.27
2018-12-12T12:58:50.374Z,6.77
2018-12-12T13:01:19.244Z,7.03
2018-12-12T13:03:48.141Z,6.67
2018-12-12T13:06:17.050Z,6.80
2018-12-12T13:08:45.933Z,7.23
2018-12-12T13:11:15.062Z,7.00
2018-12-12T13:13:44.101Z,7.33
2018-12-12T13:16:13.049Z,7.20
2018-12-12T13:18:41.936Z,6.97
2018-12-12T13:21:10.823Z,7.13
2018-12-12T13:23:39.720Z,6.67
2018-12-12T13:26:08.709Z,6.77
2018-12-12T13:28:37.576Z,6.60
2018-12-12T13:31:06.464Z,6.70
2018-12-12T13:33:35.382Z,6.63
2018-12-12T13:36:04.369Z,6.47
2018-12-12T13:38:33.276Z,6.20
2018-12-12T13:41:02.183Z,6.63
2018-12-12T13:43:31.056Z,5.83
2018-12-12T13:45:59.929Z,5.20
2018-12-12T13:48:28.892Z,5.10
2018-12-12T13:50:57.778Z,4.60
2018-12-12T13:53:26.757Z,4.70
2018-12-12T13:55:55.720Z,4.40
2018-12-12T13:58:24.600Z,4.20
2018-12-12T14:00:53.457Z,4.00
2018-12-12T14:03:22.527Z,4.83
2018-12-12T14:05:51.444Z,4.57
2018-12-12T14:08:20.405Z,4.20
2018-12-12T14:10:49.343Z,5.20
2018-12-12T14:13:18.468Z,5.10
2018-12-12T14:15:47.332Z,5.23
2018-12-12T14:18:16.188Z,4.70
2018-12-12T14:20:45.096Z,5.37
2018-12-12T14:23:14.030Z,5.37
2018-12-12T14:25:42.882Z,5.67
2018-12-12T14:28:11.767Z,5.97
2018-12-12T14:30:40.809Z,5.97
2018-12-12T14:33:09.625Z,5.60
2018-12-12T14:35:38.501Z,6.07
2018-12-12T14:38:07.359Z,6.00
2018-12-12T14:40:36.285Z,5.77
2018-12-12T14:43:05.291Z,6.20
2018-12-12T14:45:34.211Z,6.03
2018-12-12T14:48:03.204Z,6.50
2018-12-12T14:50:32.375Z,6.07
2018-12-12T14:53:01.246Z,6.37
2018-12-12T14:55:30.188Z,6.27
2018-12-12T14:57:59.180Z,6.80
2018-12-12T15:00:28.043Z,6.20
2018-12-12T15:02:57.042Z,6.43
2018-12-12T15:05:26.076Z,7.30
2018-12-12T15:07:54.986Z,6.50
2018-12-12T15:10:23.859Z,6.70
2018-12-12T15:12:52.858Z,7.03
2018-12-12T15:15:22.712Z,6.87
2018-12-12T15:17:51.625Z,6.97
2018-12-12T15:20:20.564Z,8.23
2018-12-12T15:22:49.508Z,7.53
2018-12-12T15:25:18.705Z,7.27
2018-12-12T15:27:47.562Z,7.33
2018-12-12T15:30:16.663Z,7.00
2018-12-12T15:32:45.526Z,7.77
2018-12-12T15:35:14.699Z,7.23
2018-12-12T15:37:43.648Z,6.77
2018-12-12T15:40:12.855Z,7.30
2018-12-12T15:42:41.775Z,7.13
2018-12-12T15:45:10.912Z,7.40
2018-12-12T15:47:39.956Z,7.50
2018-12-12T15:50:09.128Z,7.07
2018-12-12T15:52:38.306Z,8.77
2018-12-12T15:55:07.335Z,9.80
2018-12-12T15:57:36.211Z,10.10
2018-12-12T16:00:05.962Z,9.53
2018-12-12T16:02:34.845Z,8.77
2018-12-12T16:05:04.249Z,8.23
2018-12-12T16:07:33.152Z,9.15
2018-12-12T16:10:02.637Z,9.43
2018-12-12T16:12:32.604Z,7.80
2018-12-12T16:15:01.587Z,8.37
2018-12-12T16:17:30.589Z,8.53
2018-12-12T16:19:59.475Z,7.63
2018-12-12T16:22:28.464Z,8.07
2018-12-12T16:24:57.409Z,7.87
2018-12-12T16:27:26.379Z,8.20
2018-12-12T16:29:55.344Z,7.30
2018-12-12T16:32:24.416Z,8.90
2018-12-12T16:34:55.869Z,7.90
2018-12-12T16:37:24.144Z,7.97
2018-12-12T16:39:53.096Z,8.87
2018-12-12T16:42:22.103Z,8.60
2018-12-12T16:44:53.107Z,8.13
2018-12-12T16:47:38.983Z,8.43
2018-12-12T16:50:08.328Z,8.57
2018-12-12T16:52:37.388Z,7.73
2018-12-12T16:55:06.453Z,8.23
2018-12-12T16:57:35.480Z,8.27
2018-12-12T17:00:06.981Z,8.33
2018-12-12T17:02:35.995Z,8.03
2018-12-12T17:05:05.477Z,8.57
2018-12-12T17:07:34.465Z,8.33
2018-12-12T17:10:03.929Z,8.03
2018-12-12T17:12:32.976Z,8.73
2018-12-12T17:15:02.236Z,8.30
2018-12-12T17:17:31.208Z,8.95
2018-12-12T17:20:00.188Z,8.70
2018-12-12T17:22:29.071Z,8.90
2018-12-12T17:24:57.992Z,9.17
2018-12-12T17:27:27.079Z,10.18
2018-12-12T17:29:56.045Z,9.33
2018-12-12T17:32:25.263Z,8.27
2018-12-12T17:34:54.257Z,8.73
2018-12-12T17:37:23.239Z,8.53
2018-12-12T17:39:52.248Z,8.50
2018-12-12T17:42:21.238Z,8.33
2018-12-12T17:44:50.132Z,8.17
2018-12-12T17:47:19.028Z,8.80
2018-12-12T17:49:47.929Z,8.50
2018-12-12T17:52:16.950Z,8.07
2018-12-12T17:54:45.871Z,8.13
2018-12-12T17:57:14.893Z,8.20
2018-12-12T17:59:43.843Z,8.23
2018-12-12T18:02:12.866Z,8.23
2018-12-12T18:04:47.541Z,8.80
2018-12-12T18:07:16.561Z,9.67
2018-12-12T18:09:45.595Z,7.70
2018-12-12T18:12:14.580Z,8.17
2018-12-12T18:14:43.522Z,8.17
2018-12-12T18:17:14.387Z,8.40
2018-12-12T18:19:43.401Z,7.63
2018-12-12T18:22:18.641Z,8.30
2018-12-12T18:24:49.581Z,7.67
2018-12-12T18:27:30.275Z,8.07
2018-12-12T18:30:01.190Z,8.50
2018-12-12T18:32:40.598Z,7.87
2018-12-12T18:35:31.928Z,8.23
2018-12-12T18:38:00.877Z,7.90
2018-12-12T18:40:29.963Z,8.17
2018-12-12T18:43:00.794Z,7.73
2018-12-12T18:45:33.251Z,8.77
2018-12-12T18:48:06.000Z,8.20
2018-12-12T18:50:42.960Z,8.80
2018-12-12T18:53:34.284Z,7.77
2018-12-12T18:59:17.057Z,9.33
2018-12-12T19:01:46.069Z,7.83
2018-12-12T19:04:16.074Z,9.60
2018-12-12T19:06:45.948Z,8.87
2018-12-12T19:09:22.830Z,9.23
2018-12-12T19:12:08.178Z,8.60
2018-12-12T19:14:45.330Z,8.53
2018-12-12T19:17:29.345Z,8.33
2018-12-12T19:20:05.525Z,9.53
2018-12-12T19:22:40.641Z,7.97
2018-12-12T19:25:25.688Z,8.90
2018-12-12T19:31:01.310Z,8.57
2018-12-12T19:33:49.993Z,8.50
2018-12-12T19:36:35.190Z,8.83
2018-12-12T19:39:10.640Z,8.43
2018-12-12T19:48:03.020Z,9.50
2018-12-12T19:50:32.230Z,10.07
2018-12-12T20:02:40.160Z,9.97
2018-12-12T20:08:20.501Z,9.67
2018-12-12T20:10:55.582Z,9.47
2018-12-12T20:13:40.423Z,10.57
2018-12-12T20:16:21.709Z,9.53
2018-12-12T20:18:50.583Z,9.40
2018-12-12T20:21:19.502Z,10.30
2018-12-12T20:23:48.452Z,10.00
2018-12-12T20:26:17.351Z,10.40
2018-12-12T20:28:46.293Z,10.17
2018-12-12T20:31:15.249Z,11.33
2018-12-12T20:36:43.632Z,10.20
2018-12-12T20:39:12.561Z,11.27
2018-12-12T20:41:41.464Z,11.03
2018-12-12T20:44:10.356Z,10.10
2018-12-12T20:46:39.228Z,10.20
2018-12-12T20:49:08.102Z,11.13
2018-12-12T20:51:36.997Z,11.13
2018-12-12T20:54:07.059Z,10.73
2018-12-12T20:56:35.938Z,10.60
2018-12-12T20:59:04.899Z,10.50
2018-12-12T21:01:33.771Z,10.70
2018-12-12T21:04:02.683Z,11.50
2018-12-12T21:06:31.713Z,11.17
2018-12-12T21:09:00.684Z,10.40
2018-12-12T21:11:29.699Z,11.17
2018-12-12T21:13:58.584Z,10.37
2018-12-12T21:16:30.533Z,11.43
2018-12-12T21:19:16.118Z,10.63
2018-12-12T21:21:45.043Z,10.73
2018-12-12T21:24:13.987Z,10.17
2018-12-12T21:26:42.912Z,10.23
2018-12-12T21:29:11.819Z,10.77
2018-12-12T21:31:40.685Z,10.30
2018-12-12T21:34:12.792Z,10.67
2018-12-12T21:36:42.754Z,10.43
2018-12-12T21:39:11.734Z,10.13
2018-12-12T21:41:40.742Z,10.60
2018-12-12T21:44:09.666Z,10.47
2018-12-12T21:46:38.713Z,10.43
2018-12-12T21:49:07.676Z,9.73
2018-12-12T21:51:36.559Z,10.23
2018-12-12T21:54:05.656Z,10.47
2018-12-12T21:56:34.923Z,10.80
2018-12-12T21:59:03.866Z,10.47
2018-12-12T22:01:32.785Z,9.90
2018-12-12T22:04:01.672Z,10.60
2018-12-12T22:06:30.792Z,10.60
2018-12-12T22:08:59.794Z,9.90
2018-12-12T22:11:28.714Z,10.60
2018-12-12T22:13:57.659Z,10.40
2018-12-12T22:16:26.707Z,10.50
2018-12-12T22:18:55.784Z,9.27
2018-12-12T22:21:24.687Z,9.80
2018-12-12T22:23:53.789Z,8.60
2018-12-12T22:26:22.937Z,9.20
2018-12-12T22:28:52.575Z,9.00
2018-12-12T22:31:22.527Z,9.33
2018-12-12T22:33:52.505Z,10.13
2018-12-12T22:36:21.484Z,9.37
2018-12-12T22:38:50.367Z,8.73
2018-12-12T22:41:19.769Z,8.63
2018-12-12T22:43:48.669Z,8.93
2018-12-12T22:46:17.577Z,7.30
2018-12-12T22:48:46.468Z,7.60
2018-12-12T22:51:15.352Z,7.00
2018-12-12T22:53:44.303Z,7.17
2018-12-12T22:56:13.202Z,6.93
2018-12-12T22:58:42.239Z,6.00
2018-12-12T23:01:15.364Z,6.47
2018-12-12T23:03:46.267Z,7.17
2018-12-12T23:06:20.384Z,6.90
2018-12-12T23:08:46.127Z,6.83
2018-12-12T23:11:15.092Z,7.00
2018-12-12T23:13:44.214Z,7.10
2018-12-12T23:16:13.365Z,7.20
2018-12-12T23:18:42.287Z,7.47
2018-12-12T23:21:11.166Z,7.23
2018-12-12T23:23:40.279Z,7.43
2018-12-12T23:26:09.172Z,6.67
2018-12-12T23:28:38.347Z,7.10
2018-12-12T23:31:07.349Z,7.70
2018-12-12T23:33:36.222Z,7.03
2018-12-12T23:36:05.110Z,7.30
2018-12-12T23:38:34.000Z,7.67
2018-12-12T23:41:02.993Z,7.13
2018-12-12T23:43:32.004Z,7.10
2018-12-12T23:46:01.196Z,6.50
2018-12-12T23:48:30.239Z,6.13
2018-12-12T23:50:59.185Z,5.63
2018-12-12T23:53:28.067Z,5.80
2018-12-12T23:55:57.079Z,5.90
2018-12-12T23:58:26.081Z,5.50
